Time;durP1;ratioP1;P1;durP2;ratioP2;P2;SDS_P1;SDS_P2;PMS_P1;PMS_P2;Temp;Humidity;BMP_temperature;BMP_pressure;BME280_temperature;BME280_humidity;BME280_pressure;Samples;Min_cycle;Max_cycle;Signal;HPM_P1;HPM_P2
2022/03/20 00:01:02;;;;;;;11.40;5.35;;;6.20;99.90;;;;;;5053996;28;20055;-70
2022/03/20 00:03:30;;;;;;;9.10;4.70;;;6.20;99.90;;;;;;5052030;28;20477;-70
2022/03/20 00:05:56;;;;;;;8.63;4.95;;;6.20;99.90;;;;;;5052923;28;20111;-70
2022/03/20 00:08:22;;;;;;;11.68;5.38;;;6.20;99.90;;;;;;5052482;28;20053;-68
2022/03/20 00:10:50;;;;;;;8.57;5.28;;;6.20;99.90;;;;;;5053009;28;20111;-70
2022/03/20 00:13:23;;;;;;;8.70;5.20;;;6.20;99.90;;;;;;5057890;28;20371;-70
2022/03/20 00:15:53;;;;;;;10.07;4.40;;;6.20;99.90;;;;;;5071466;28;20066;-67
2022/03/20 00:18:20;;;;;;;11.23;6.20;;;6.20;99.90;;;;;;5056177;28;20072;-67
2022/03/20 00:20:51;;;;;;;12.25;4.78;;;6.10;99.90;;;;;;5052679;28;20047;-67
2022/03/20 00:23:17;;;;;;;9.93;4.88;;;6.20;99.90;;;;;;5052241;28;20089;-67
2022/03/20 00:25:44;;;;;;;11.98;6.70;;;6.00;99.90;;;;;;5052624;28;20053;-67
2022/03/20 00:28:12;;;;;;;9.38;5.55;;;6.00;99.90;;;;;;5052285;28;20094;-67
2022/03/20 00:30:38;;;;;;;18.75;5.78;;;6.00;99.90;;;;;;5052324;28;20053;-67
2022/03/20 00:33:04;;;;;;;10.90;6.00;;;6.00;99.90;;;;;;5051400;28;20095;-67
2022/03/20 00:35:30;;;;;;;9.88;5.68;;;6.00;99.90;;;;;;5051059;28;20033;-67
2022/03/20 00:37:56;;;;;;;12.07;6.05;;;6.10;99.90;;;;;;5050675;28;20477;-67
2022/03/20 00:40:21;;;;;;;11.93;5.88;;;6.00;99.90;;;;;;5052018;28;20704;-69
2022/03/20 00:42:47;;;;;;;10.25;5.50;;;6.00;99.90;;;;;;5051322;28;20044;-69
2022/03/20 00:45:12;;;;;;;11.05;6.38;;;6.00;99.90;;;;;;5052136;28;20106;-67
2022/03/20 00:47:38;;;;;;;10.18;5.50;;;6.00;99.90;;;;;;5050789;28;20106;-67
2022/03/20 00:50:05;;;;;;;15.70;7.13;;;6.00;99.90;;;;;;5050523;28;20036;-67
2022/03/20 00:52:32;;;;;;;18.15;6.97;;;6.00;99.90;;;;;;5051095;28;20033;-67
2022/03/20 00:54:58;;;;;;;13.07;6.28;;;6.00;99.90;;;;;;5051549;28;20497;-67
2022/03/20 00:57:24;;;;;;;10.30;6.60;;;6.00;99.90;;;;;;5052126;28;20045;-67
2022/03/20 00:59:49;;;;;;;12.57;6.63;;;6.00;99.90;;;;;;5051759;28;20040;-67
2022/03/20 01:02:15;;;;;;;15.77;6.80;;;5.90;99.90;;;;;;5050976;28;20517;-69
2022/03/20 01:04:41;;;;;;;10.13;6.32;;;6.00;99.90;;;;;;5033770;28;20564;-67
2022/03/20 01:07:07;;;;;;;16.27;6.85;;;5.90;99.90;;;;;;5051375;28;20123;-67
2022/03/20 01:09:33;;;;;;;16.02;8.05;;;5.90;99.90;;;;;;5051650;28;20037;-67
2022/03/20 01:11:59;;;;;;;20.77;8.32;;;6.00;99.90;;;;;;5051143;28;20036;-67
2022/03/20 01:14:26;;;;;;;12.52;7.30;;;5.90;99.90;;;;;;5072033;28;20028;-67
2022/03/20 01:16:54;;;;;;;14.25;8.07;;;6.00;99.90;;;;;;5073026;28;20101;-67
2022/03/20 01:19:23;;;;;;;16.38;7.60;;;5.90;99.90;;;;;;5051871;28;20041;-67
2022/03/20 01:21:50;;;;;;;17.95;9.35;;;5.90;99.90;;;;;;5050810;28;20040;-68
2022/03/20 01:24:16;;;;;;;17.27;7.82;;;5.90;99.90;;;;;;5053709;28;20056;-68
2022/03/20 01:26:41;;;;;;;13.93;8.10;;;5.90;99.90;;;;;;5069039;28;20036;-68
2022/03/20 01:29:07;;;;;;;13.30;8.27;;;5.90;99.90;;;;;;5061283;28;20043;-67
2022/03/20 01:31:34;;;;;;;14.98;8.07;;;5.90;99.90;;;;;;5050049;28;20112;-68
2022/03/20 01:34:00;;;;;;;18.83;8.50;;;5.80;99.90;;;;;;5050427;28;20449;-68
2022/03/20 01:36:26;;;;;;;13.10;8.48;;;5.90;99.90;;;;;;5051439;28;20247;-68
2022/03/20 01:38:53;;;;;;;13.98;7.93;;;5.90;99.90;;;;;;5050979;28;20060;-68
2022/03/20 01:41:19;;;;;;;18.23;8.25;;;5.80;99.90;;;;;;5051149;28;20064;-68
2022/03/20 01:43:59;;;;;;;15.10;8.32;;;5.80;99.90;;;;;;5050455;28;20470;-68
2022/03/20 01:46:26;;;;;;;14.10;7.78;;;5.70;99.90;;;;;;5050851;28;20619;-68
2022/03/20 01:48:52;;;;;;;13.38;7.78;;;5.60;99.90;;;;;;5050982;28;20069;-68
2022/03/20 01:52:10;;;;;;;15.00;8.00;;;5.50;99.90;;;;;;5050874;28;20041;-68
2022/03/20 01:54:04;;;;;;;16.48;8.48;;;5.50;99.90;;;;;;5050335;28;20508;-68
2022/03/20 01:56:33;;;;;;;16.67;7.78;;;5.40;99.90;;;;;;5050796;28;20112;-68
2022/03/20 01:59:01;;;;;;;14.15;7.10;;;5.40;99.90;;;;;;5050685;28;20115;-68
2022/03/20 02:01:26;;;;;;;13.90;8.15;;;5.30;99.90;;;;;;5050553;28;20052;-68
2022/03/20 02:03:53;;;;;;;11.02;7.28;;;5.30;99.90;;;;;;5049983;28;20055;-68
2022/03/20 02:06:19;;;;;;;17.33;8.55;;;5.20;99.90;;;;;;5050606;28;20041;-68
2022/03/20 02:08:44;;;;;;;14.52;7.53;;;5.30;99.90;;;;;;5050573;28;20073;-68
2022/03/20 02:11:10;;;;;;;11.27;7.22;;;5.30;99.90;;;;;;5033079;28;20077;-68
2022/03/20 02:13:36;;;;;;;15.55;8.07;;;5.20;99.90;;;;;;5050015;28;20037;-68
2022/03/20 02:16:02;;;;;;;15.93;8.30;;;5.10;99.90;;;;;;5050330;28;20041;-68
2022/03/20 02:18:27;;;;;;;13.65;7.85;;;5.10;99.90;;;;;;5050460;28;20053;-68
2022/03/20 02:20:55;;;;;;;13.20;7.50;;;5.00;99.90;;;;;;5048776;28;20048;-68
2022/03/20 02:23:20;;;;;;;15.38;8.45;;;4.90;99.90;;;;;;5049595;28;20068;-68
2022/03/20 02:25:51;;;;;;;16.80;8.73;;;5.00;99.90;;;;;;5050127;28;20049;-68
2022/03/20 02:28:17;;;;;;;17.63;8.02;;;5.00;99.90;;;;;;5050514;28;20068;-68
2022/03/20 02:30:45;;;;;;;15.25;7.80;;;4.90;99.90;;;;;;5050552;28;20037;-68
2022/03/20 02:33:10;;;;;;;15.93;8.50;;;4.90;99.90;;;;;;5049378;28;20041;-68
2022/03/20 02:35:37;;;;;;;13.73;8.23;;;4.90;99.90;;;;;;5050699;28;20144;-69
2022/03/20 02:38:04;;;;;;;14.52;8.32;;;4.80;99.90;;;;;;5057415;28;20055;-68
2022/03/20 02:40:30;;;;;;;15.40;9.13;;;4.80;99.90;;;;;;5074413;28;20076;-68
2022/03/20 02:42:56;;;;;;;20.23;8.55;;;4.80;99.90;;;;;;5060552;28;20049;-68
2022/03/20 02:45:30;;;;;;;14.73;7.85;;;4.80;99.90;;;;;;5051408;28;20128;-68
2022/03/20 02:47:57;;;;;;;17.08;8.85;;;4.70;99.90;;;;;;5050271;28;20041;-68
2022/03/20 02:50:24;;;;;;;13.63;8.10;;;4.80;99.90;;;;;;5049814;28;20037;-68
2022/03/20 02:52:58;;;;;;;20.88;8.80;;;4.80;99.90;;;;;;5047889;28;20041;-68
2022/03/20 02:55:30;;;;;;;15.75;8.18;;;4.60;99.90;;;;;;5050151;28;20052;-68
2022/03/20 02:57:58;;;;;;;21.27;9.02;;;4.70;99.90;;;;;;5049876;28;20497;-68
2022/03/20 03:00:26;;;;;;;20.77;10.48;;;4.60;99.90;;;;;;5049719;28;20048;-68
2022/03/20 03:02:54;;;;;;;17.17;9.45;;;4.60;99.90;;;;;;5047587;28;20045;-68
2022/03/20 03:05:22;;;;;;;20.45;8.82;;;4.50;99.90;;;;;;5048259;28;20120;-68
2022/03/20 03:13:41;;;;;;;14.95;8.70;;;4.50;99.90;;;;;;5051075;28;20486;-68
2022/03/20 03:16:10;;;;;;;14.88;8.30;;;4.40;99.90;;;;;;5051940;28;20454;-68
2022/03/20 03:18:37;;;;;;;15.65;8.48;;;4.50;99.90;;;;;;5053456;28;20136;-68
2022/03/20 03:21:03;;;;;;;20.50;11.45;;;4.40;99.90;;;;;;5053726;28;20408;-68
2022/03/20 03:23:30;;;;;;;21.20;10.20;;;4.40;99.90;;;;;;5051144;28;20075;-68
2022/03/20 03:25:56;;;;;;;18.60;9.07;;;4.50;99.90;;;;;;5051911;28;20455;-68
2022/03/20 03:28:28;;;;;;;18.08;8.93;;;4.40;99.90;;;;;;5052108;28;20048;-68
2022/03/20 03:30:54;;;;;;;18.00;9.37;;;4.40;99.90;;;;;;5053610;28;20037;-68
2022/03/20 03:33:21;;;;;;;19.55;9.27;;;4.30;99.90;;;;;;5052433;28;20040;-68
2022/03/20 03:35:53;;;;;;;16.48;9.25;;;4.40;99.90;;;;;;5053369;28;20095;-67
2022/03/20 03:38:25;;;;;;;20.27;9.57;;;4.40;99.90;;;;;;5053429;28;20405;-68
2022/03/20 03:40:52;;;;;;;;;;;4.30;99.90;;;;;;5052482;28;20521;-68
2022/03/20 03:43:18;;;;;;;20.20;9.40;;;4.30;99.90;;;;;;5052565;28;19994;-68
2022/03/20 03:45:46;;;;;;;16.80;9.40;;;4.40;99.90;;;;;;5053329;28;20041;-68
2022/03/20 03:48:12;;;;;;;18.90;9.40;;;4.30;99.90;;;;;;5058317;28;20360;-68
2022/03/20 03:50:41;;;;;;;22.23;10.88;;;4.30;99.90;;;;;;5072138;28;20064;-69
2022/03/20 03:53:09;;;;;;;23.42;10.45;;;4.20;99.90;;;;;;5058635;28;20614;-68
2022/03/20 03:55:36;;;;;;;21.60;10.60;;;4.20;99.90;;;;;;5053503;28;20033;-68
2022/03/20 03:58:01;;;;;;;18.08;10.23;;;4.20;99.90;;;;;;5053777;28;20049;-68
2022/03/20 04:00:29;;;;;;;19.83;10.80;;;4.20;99.90;;;;;;5074853;28;20055;-68
2022/03/20 04:02:55;;;;;;;19.90;10.70;;;4.20;99.90;;;;;;5075125;28;20025;-68
2022/03/20 04:05:20;;;;;;;18.95;11.02;;;4.20;99.90;;;;;;5053387;28;20079;-68
2022/03/20 04:07:47;;;;;;;24.88;10.57;;;4.20;99.90;;;;;;5052708;28;20091;-68
2022/03/20 04:10:14;;;;;;;21.27;9.98;;;4.20;99.90;;;;;;5052560;28;20087;-68
2022/03/20 04:12:40;;;;;;;21.73;11.35;;;4.10;99.90;;;;;;5052173;28;20040;-68
2022/03/20 04:15:07;;;;;;;20.17;11.60;;;4.10;99.90;;;;;;5052717;28;20048;-68
2022/03/20 04:17:33;;;;;;;21.42;11.52;;;4.10;99.90;;;;;;5052439;28;20076;-68
2022/03/20 04:19:59;;;;;;;19.17;11.25;;;4.10;99.90;;;;;;5052388;28;20081;-68
2022/03/20 04:22:26;;;;;;;20.33;10.70;;;4.10;99.90;;;;;;5051711;28;20076;-68
2022/03/20 04:24:52;;;;;;;19.38;11.30;;;4.10;99.90;;;;;;5052358;28;20071;-68
2022/03/20 04:27:18;;;;;;;25.02;11.63;;;4.10;99.90;;;;;;5052309;28;20062;-68
2022/03/20 04:29:44;;;;;;;24.30;12.02;;;4.10;99.90;;;;;;5052239;28;20567;-68
2022/03/20 04:32:11;;;;;;;22.50;12.43;;;4.00;99.90;;;;;;5050249;28;20207;-68
2022/03/20 04:34:38;;;;;;;25.38;11.48;;;4.00;99.90;;;;;;5050827;28;20055;-68
2022/03/20 04:37:06;;;;;;;25.17;11.52;;;4.00;99.90;;;;;;5052145;28;20095;-68
2022/03/20 04:39:37;;;;;;;24.48;12.63;;;4.00;99.90;;;;;;5051966;28;20497;-68
2022/03/20 04:42:04;;;;;;;21.23;11.65;;;3.90;99.90;;;;;;5051164;28;20120;-68
2022/03/20 04:44:29;;;;;;;23.02;11.75;;;3.90;99.90;;;;;;5052069;28;20044;-68
2022/03/20 04:46:56;;;;;;;20.67;13.25;;;3.90;99.90;;;;;;5050406;28;20494;-68
2022/03/20 05:00:20;;;;;;;22.65;11.93;;;3.80;99.90;;;;;;5058379;28;20075;-68
2022/03/20 05:02:46;;;;;;;23.02;11.63;;;3.80;99.90;;;;;;5069105;28;20041;-68
2022/03/20 05:05:12;;;;;;;23.35;12.23;;;3.70;99.90;;;;;;5054676;28;20535;-67
2022/03/20 05:07:37;;;;;;;23.58;13.68;;;3.80;99.90;;;;;;5051552;28;20072;-67
2022/03/20 05:15:33;;;;;;;28.08;13.00;;;3.70;99.90;;;;;;5051328;28;20490;-67
2022/03/20 05:17:59;;;;;;;29.30;13.27;;;3.70;99.90;;;;;;5051347;28;20029;-67
2022/03/20 05:20:26;;;;;;;25.25;13.40;;;3.70;99.90;;;;;;5051102;28;20124;-67
2022/03/20 05:22:52;;;;;;;22.58;13.35;;;3.70;99.90;;;;;;5062656;28;20052;-67
2022/03/20 05:25:18;;;;;;;26.50;12.85;;;3.60;99.90;;;;;;5072627;28;20037;-67
2022/03/20 05:27:44;;;;;;;23.77;12.88;;;3.60;99.90;;;;;;5061056;28;20132;-67
2022/03/20 05:30:11;;;;;;;27.00;14.05;;;3.60;99.90;;;;;;5050246;28;20173;-67
2022/03/20 05:32:38;;;;;;;24.25;13.05;;;3.60;99.90;;;;;;5039579;28;20048;-67
2022/03/20 05:35:09;;;;;;;28.38;13.45;;;3.60;99.90;;;;;;5041449;28;20486;-67
2022/03/20 05:37:36;;;;;;;24.23;13.75;;;3.60;99.90;;;;;;5049349;28;20045;-67
2022/03/20 05:40:03;;;;;;;24.52;13.07;;;3.60;99.90;;;;;;5049423;28;20583;-67
2022/03/20 05:42:28;;;;;;;26.50;13.65;;;3.60;99.90;;;;;;5046920;28;20056;-67
2022/03/20 05:44:54;;;;;;;28.67;14.20;;;3.60;99.90;;;;;;5051154;28;20045;-67
2022/03/20 05:47:19;;;;;;;26.27;13.90;;;3.70;99.90;;;;;;5050605;28;20048;-67
2022/03/20 05:49:46;;;;;;;25.05;13.90;;;3.60;99.90;;;;;;5050862;28;20037;-68
2022/03/20 05:52:13;;;;;;;27.73;14.25;;;3.60;99.90;;;;;;5049908;28;20537;-67
2022/03/20 05:54:39;;;;;;;25.30;13.50;;;3.60;99.90;;;;;;5050700;28;20037;-67
2022/03/20 05:59:53;;;;;;;26.45;13.45;;;3.60;99.90;;;;;;5050598;28;20045;-67
2022/03/20 06:02:19;;;;;;;25.92;14.50;;;3.60;99.90;;;;;;5049830;28;20052;-67
2022/03/20 06:04:45;;;;;;;27.60;13.73;;;3.60;99.90;;;;;;5050397;28;20043;-67
2022/03/20 06:07:10;;;;;;;28.98;14.10;;;3.60;99.90;;;;;;5050374;28;20040;-67
2022/03/20 06:09:37;;;;;;;23.80;13.95;;;3.60;99.90;;;;;;5050518;28;20413;-67
2022/03/20 06:12:03;;;;;;;23.75;14.48;;;3.60;99.90;;;;;;5054899;28;20092;-67
2022/03/20 06:14:29;;;;;;;33.65;14.90;;;3.60;99.90;;;;;;5067087;28;20043;-67
2022/03/20 06:16:56;;;;;;;25.02;14.73;;;3.60;99.90;;;;;;5056182;28;20033;-67
2022/03/20 06:19:22;;;;;;;25.55;13.55;;;3.70;99.90;;;;;;5050654;28;20116;-67
2022/03/20 06:21:48;;;;;;;24.90;14.02;;;3.60;99.90;;;;;;5049908;28;20048;-66
2022/03/20 06:24:13;;;;;;;26.75;14.82;;;3.60;99.90;;;;;;5050477;28;20029;-67
2022/03/20 06:26:39;;;;;;;25.25;14.05;;;3.60;99.90;;;;;;5050162;28;20029;-67
2022/03/20 06:29:06;;;;;;;24.65;13.95;;;3.60;99.90;;;;;;5050616;28;20033;-67
2022/03/20 06:31:32;;;;;;;24.52;14.85;;;3.60;99.90;;;;;;5049484;28;20113;-67
2022/03/20 06:33:58;;;;;;;25.30;14.05;;;3.60;99.90;;;;;;5049270;28;20037;-66
2022/03/20 06:36:25;;;;;;;26.88;13.50;;;3.70;99.90;;;;;;5050334;28;20037;-69
2022/03/20 06:38:51;;;;;;;25.85;13.70;;;3.60;99.90;;;;;;5050307;28;20411;-69
2022/03/20 06:41:18;;;;;;;27.08;14.43;;;3.70;99.90;;;;;;5050239;28;20119;-69
2022/03/20 06:43:44;;;;;;;26.95;14.15;;;3.70;99.90;;;;;;5049701;28;20053;-69
2022/03/20 06:46:10;;;;;;;25.65;14.98;;;3.80;99.90;;;;;;5067807;28;20037;-69
2022/03/20 06:48:36;;;;;;;25.48;12.77;;;3.80;99.90;;;;;;5077217;28;20048;-68
2022/03/20 06:51:04;;;;;;;30.25;14.30;;;3.80;99.90;;;;;;5059650;28;20532;-67
2022/03/20 06:53:30;;;;;;;28.38;15.32;;;3.90;99.90;;;;;;5053913;28;20102;-67
2022/03/20 06:55:56;;;;;;;24.00;13.52;;;3.90;99.90;;;;;;5054606;28;20091;-67
2022/03/20 06:58:23;;;;;;;28.92;14.80;;;3.90;99.90;;;;;;5054054;28;20501;-67
2022/03/20 07:00:51;;;;;;;29.83;14.80;;;4.00;99.90;;;;;;5054041;28;20166;-67
2022/03/20 07:03:17;;;;;;;26.25;14.15;;;4.10;99.90;;;;;;5053223;28;20048;-67
2022/03/20 07:05:43;;;;;;;25.55;15.00;;;4.10;99.90;;;;;;5054024;28;20516;-67
2022/03/20 07:08:08;;;;;;;32.65;16.00;;;4.20;99.90;;;;;;5053733;28;20374;-67
2022/03/20 07:10:35;;;;;;;28.20;15.07;;;4.20;99.90;;;;;;5053761;28;20112;-67
2022/03/20 07:15:48;;;;;;;34.15;15.77;;;4.30;99.90;;;;;;5052353;28;20045;-69
2022/03/20 07:18:16;;;;;;;34.58;15.38;;;4.30;99.90;;;;;;5053661;28;20037;-67
2022/03/20 07:20:47;;;;;;;26.35;14.35;;;4.40;99.90;;;;;;5054061;28;20128;-67
2022/03/20 07:23:13;;;;;;;30.30;15.75;;;4.40;99.90;;;;;;5054325;28;20401;-67
2022/03/20 07:31:10;;;;;;;31.38;14.15;;;4.50;99.90;;;;;;5053695;28;20053;-67
2022/03/20 07:33:36;;;;;;;26.83;15.85;;;4.50;99.90;;;;;;5052579;28;20072;-67
2022/03/20 07:36:02;;;;;;;25.67;14.68;;;4.50;99.90;;;;;;5053548;28;20053;-74
2022/03/20 07:38:28;;;;;;;33.33;16.83;;;4.50;99.90;;;;;;5051946;28;20037;-74
2022/03/20 07:40:54;;;;;;;35.35;17.30;;;4.60;99.90;;;;;;5053988;28;20087;-74
2022/03/20 07:43:20;;;;;;;33.50;15.50;;;4.60;99.90;;;;;;5053467;28;20084;-75
2022/03/20 07:45:45;;;;;;;25.85;15.25;;;4.70;99.90;;;;;;5053362;28;20063;-75
2022/03/20 07:48:11;;;;;;;38.90;16.13;;;4.70;99.90;;;;;;5054885;28;20439;-77
2022/03/20 07:50:38;;;;;;;29.00;15.88;;;4.80;99.90;;;;;;5057599;28;20120;-75
2022/03/20 07:53:04;;;;;;;26.63;15.68;;;4.90;99.90;;;;;;5081576;28;20041;-74
2022/03/20 07:55:30;;;;;;;30.83;15.88;;;5.00;99.90;;;;;;5091972;28;20074;-73
2022/03/20 07:58:00;;;;;;;30.90;15.88;;;4.90;99.90;;;;;;5093552;28;20044;-74
2022/03/20 08:00:26;;;;;;;28.23;16.27;;;5.00;99.90;;;;;;5093219;28;20118;-74
2022/03/20 08:02:52;;;;;;;26.08;14.43;;;5.10;99.90;;;;;;5091689;28;20552;-75
2022/03/20 08:05:18;;;;;;;30.63;15.63;;;5.10;99.90;;;;;;5093877;28;20035;-74
2022/03/20 08:07:43;;;;;;;29.20;16.67;;;5.30;99.90;;;;;;5103405;28;20055;-74
2022/03/20 08:10:11;;;;;;;28.90;15.32;;;5.20;99.90;;;;;;5117935;28;20024;-72
2022/03/20 08:12:37;;;;;;;29.10;15.32;;;5.20;99.90;;;;;;5107059;28;20048;-67
2022/03/20 08:15:05;;;;;;;27.52;14.90;;;5.30;99.70;;;;;;5094953;28;20040;-67
2022/03/20 08:17:30;;;;;;;29.60;15.45;;;5.30;99.90;;;;;;5092046;28;20036;-67
2022/03/20 08:19:57;;;;;;;25.88;15.48;;;5.60;99.90;;;;;;5069904;28;20045;-68
2022/03/20 08:22:25;;;;;;;31.30;16.23;;;5.50;99.90;;;;;;5052455;28;20044;-67
2022/03/20 08:24:51;;;;;;;27.38;15.45;;;5.50;99.90;;;;;;5052928;28;20055;-68
2022/03/20 08:27:19;;;;;;;30.85;16.67;;;5.40;98.60;;;;;;5052644;28;20045;-69
2022/03/20 08:29:45;;;;;;;27.40;15.57;;;5.40;99.90;;;;;;5052942;28;20041;-68
2022/03/20 08:32:11;;;;;;;30.23;16.20;;;5.50;99.90;;;;;;5051924;28;20052;-68
2022/03/20 08:34:36;;;;;;;28.85;15.90;;;5.50;97.90;;;;;;5056653;28;20041;-68
2022/03/20 08:37:02;;;;;;;32.40;18.20;;;5.60;99.00;;;;;;5071755;28;20041;-68
2022/03/20 08:39:28;;;;;;;31.38;17.38;;;5.70;98.70;;;;;;5059635;28;20087;-67
2022/03/20 08:41:53;;;;;;;31.23;16.25;;;5.90;99.40;;;;;;5051529;28;20116;-68
2022/03/20 08:44:19;;;;;;;30.02;16.48;;;5.90;94.90;;;;;;5052393;28;20110;-67
2022/03/20 08:46:45;;;;;;;27.60;16.65;;;5.90;96.00;;;;;;5051092;28;20037;-67
2022/03/20 08:49:10;;;;;;;27.90;16.15;;;6.00;96.40;;;;;;5052149;28;20486;-67
2022/03/20 08:51:39;;;;;;;30.75;17.45;;;6.00;91.30;;;;;;5051626;28;20040;-67
2022/03/20 08:54:06;;;;;;;29.85;16.20;;;6.10;93.40;;;;;;5051715;28;20455;-68
2022/03/20 08:56:33;;;;;;;34.03;16.83;;;6.10;96.40;;;;;;5052222;28;20446;-67
2022/03/20 08:58:59;;;;;;;30.27;17.08;;;6.30;94.50;;;;;;5052452;28;20040;-67
2022/03/20 09:01:25;;;;;;;31.00;15.90;;;6.20;82.50;;;;;;5052118;28;20492;-67
2022/03/20 09:03:51;;;;;;;30.65;17.02;;;6.30;91.60;;;;;;5050905;28;20044;-67
2022/03/20 09:06:18;;;;;;;30.50;17.20;;;6.40;93.60;;;;;;5052214;28;20704;-67
2022/03/20 09:08:43;;;;;;;30.27;17.00;;;6.40;90.50;;;;;;5051627;28;20035;-66
2022/03/20 09:11:09;;;;;;;35.65;17.30;;;6.50;85.40;;;;;;5051005;28;20448;-72
2022/03/20 09:13:35;;;;;;;31.30;15.55;;;6.50;85.60;;;;;;5049928;28;20036;-73
2022/03/20 09:19:03;;;;;;;30.15;18.05;;;6.60;79.80;;;;;;5052238;28;20045;-72
2022/03/20 09:21:34;;;;;;;29.15;17.20;;;6.90;80.00;;;;;;5050925;28;20044;-73
2022/03/20 09:24:00;;;;;;;32.60;17.33;;;6.90;85.50;;;;;;5056481;28;20121;-73
2022/03/20 09:26:26;;;;;;;31.42;17.77;;;7.00;87.50;;;;;;5062515;28;20032;-73
2022/03/20 09:28:54;;;;;;;34.75;17.23;;;6.90;80.10;;;;;;5085243;28;20037;-73
2022/03/20 09:31:20;;;;;;;31.52;17.40;;;7.00;90.20;;;;;;5089102;28;20017;-73
2022/03/20 09:33:46;;;;;;;32.45;17.77;;;7.00;85.90;;;;;;5066986;28;20037;-73
2022/03/20 09:36:12;;;;;;;33.63;18.50;;;7.00;71.40;;;;;;5061467;28;20041;-73
2022/03/20 09:38:38;;;;;;;32.63;18.55;;;7.00;72.50;;;;;;5058406;28;20037;-73
2022/03/20 09:41:07;;;;;;;29.45;17.30;;;7.10;75.80;;;;;;5060802;28;20037;-73
2022/03/20 09:43:33;;;;;;;33.58;18.50;;;7.20;87.10;;;;;;5049752;28;20098;-73
2022/03/20 09:46:00;;;;;;;33.58;17.38;;;7.30;71.50;;;;;;5068447;28;20040;-73
2022/03/20 09:48:27;;;;;;;33.97;19.38;;;7.20;76.70;;;;;;5070476;28;20045;-73
2022/03/20 09:50:53;;;;;;;32.47;16.95;;;7.40;67.60;;;;;;5050892;28;20044;-73
2022/03/20 09:53:21;;;;;;;32.40;17.70;;;7.30;69.00;;;;;;5050879;28;20378;-73
2022/03/20 09:55:46;;;;;;;35.17;18.83;;;7.40;64.60;;;;;;5049623;28;20053;-73
2022/03/20 09:58:12;;;;;;;30.10;17.05;;;7.40;66.60;;;;;;5051387;28;20044;-73
2022/03/20 10:00:38;;;;;;;33.83;17.77;;;7.40;64.00;;;;;;5051355;28;20037;-73
2022/03/20 10:03:23;;;;;;;30.48;18.02;;;7.40;62.70;;;;;;5050744;28;20041;-73
2022/03/20 10:06:18;;;;;;;28.70;17.33;;;7.50;65.20;;;;;;5051039;28;20056;-73
2022/03/20 10:09:10;;;;;;;28.75;17.42;;;7.60;66.20;;;;;;5050843;28;20048;-73
2022/03/20 10:11:49;;;;;;;38.08;19.13;;;7.70;66.40;;;;;;5046798;28;20239;-73
2022/03/20 10:14:17;;;;;;;36.13;20.10;;;7.60;66.10;;;;;;5049513;28;20130;-73
2022/03/20 10:16:50;;;;;;;34.42;19.67;;;7.70;70.60;;;;;;5049365;28;20047;-73
2022/03/20 10:19:22;;;;;;;32.50;17.73;;;7.80;62.70;;;;;;5051073;28;20466;-73
2022/03/20 10:21:51;;;;;;;36.45;18.83;;;7.90;62.50;;;;;;5049921;28;20066;-74
2022/03/20 10:24:18;;;;;;;35.05;19.15;;;7.90;66.60;;;;;;5049539;28;20063;-74
2022/03/20 10:26:45;;;;;;;32.85;18.20;;;8.00;63.50;;;;;;5049753;28;20037;-74
2022/03/20 10:29:18;;;;;;;38.05;18.27;;;8.10;65.50;;;;;;5050806;28;20120;-74
2022/03/20 10:31:51;;;;;;;32.55;18.85;;;8.20;64.80;;;;;;5049219;28;20065;-74
2022/03/20 10:34:17;;;;;;;30.38;18.17;;;8.20;62.40;;;;;;5063868;28;20167;-74
2022/03/20 10:36:44;;;;;;;35.60;20.27;;;8.30;60.20;;;;;;5082760;28;20537;-74
2022/03/20 10:39:16;;;;;;;34.97;19.60;;;8.20;63.90;;;;;;5090384;28;20051;-74
2022/03/20 10:41:43;;;;;;;38.13;20.48;;;8.40;61.60;;;;;;5088400;28;20071;-74
2022/03/20 10:44:14;;;;;;;32.25;18.67;;;8.40;68.50;;;;;;5091348;28;20109;-74
2022/03/20 10:46:40;;;;;;;36.75;20.92;;;8.40;60.40;;;;;;5089853;28;20047;-74
2022/03/20 10:49:07;;;;;;;32.72;19.70;;;8.40;61.70;;;;;;5103870;28;20024;-74
2022/03/20 10:51:37;;;;;;;34.72;20.08;;;8.50;61.00;;;;;;5095427;28;20083;-74
2022/03/20 10:54:22;;;;;;;35.75;19.10;;;8.50;65.40;;;;;;5076632;28;20043;-72
2022/03/20 10:56:54;;;;;;;32.63;18.80;;;8.70;60.50;;;;;;5090830;28;20024;-73
2022/03/20 10:59:20;;;;;;;33.63;19.00;;;8.70;60.10;;;;;;5081599;28;20044;-73
2022/03/20 11:01:47;;;;;;;39.05;19.80;;;8.80;61.00;;;;;;5069444;28;20052;-75
2022/03/20 11:04:14;;;;;;;32.00;19.10;;;8.70;58.20;;;;;;5069068;28;20044;-74
2022/03/20 11:06:44;;;;;;;33.10;19.42;;;8.70;59.30;;;;;;5070138;28;20044;-75
2022/03/20 11:09:10;;;;;;;35.90;20.30;;;8.90;58.80;;;;;;5070537;28;20102;-74
2022/03/20 11:11:50;;;;;;;40.05;19.42;;;8.90;58.60;;;;;;5069299;28;20044;-73
2022/03/20 11:14:21;;;;;;;33.83;18.88;;;9.10;59.60;;;;;;5070456;28;20385;-73
2022/03/20 11:17:06;;;;;;;34.70;19.65;;;8.90;57.50;;;;;;5069980;28;20165;-75
2022/03/20 11:19:34;;;;;;;35.67;20.90;;;8.90;57.00;;;;;;5070012;28;20039;-75
2022/03/20 11:22:05;;;;;;;33.35;20.10;;;8.90;57.80;;;;;;5067692;28;20037;-74
2022/03/20 11:24:32;;;;;;;32.88;18.05;;;9.10;58.20;;;;;;5070052;28;20043;-75
2022/03/20 11:27:02;;;;;;;34.97;20.60;;;9.00;56.80;;;;;;5069465;28;20045;-75
2022/03/20 11:29:47;;;;;;;34.00;19.38;;;9.10;57.20;;;;;;5065268;28;20036;-76
2022/03/20 11:32:14;;;;;;;34.67;19.42;;;9.10;56.70;;;;;;5049148;28;20083;-76
2022/03/20 11:34:39;;;;;;;33.60;20.35;;;9.10;56.80;;;;;;5050422;28;20137;-74
2022/03/20 11:37:09;;;;;;;36.00;19.73;;;9.20;57.30;;;;;;5051920;28;20098;-76
2022/03/20 11:39:36;;;;;;;35.25;19.20;;;9.30;57.60;;;;;;5053870;28;20029;-76
2022/03/20 11:42:21;;;;;;;35.63;19.75;;;9.30;58.10;;;;;;5052690;28;20594;-76
2022/03/20 11:44:51;;;;;;;37.85;19.65;;;9.40;58.20;;;;;;5052415;28;20040;-76
2022/03/20 11:47:16;;;;;;;34.08;19.08;;;9.50;57.10;;;;;;5053106;28;20443;-76
2022/03/20 11:49:42;;;;;;;37.78;20.67;;;9.60;58.10;;;;;;5053563;28;20136;-76
2022/03/20 11:52:11;;;;;;;32.08;20.63;;;9.70;57.20;;;;;;5052351;28;20117;-73
2022/03/20 11:54:39;;;;;;;31.42;18.73;;;9.70;56.90;;;;;;5052807;28;20045;-73
2022/03/20 11:57:23;;;;;;;35.70;20.48;;;9.70;56.60;;;;;;5051898;28;20037;-74
2022/03/20 11:59:50;;;;;;;36.75;21.15;;;9.90;61.20;;;;;;5053654;28;20029;-74
2022/03/20 12:02:17;;;;;;;35.80;21.48;;;9.90;57.60;;;;;;5053171;28;20128;-75
2022/03/20 12:05:13;;;;;;;39.35;20.70;;;10.00;58.70;;;;;;5067251;28;20029;-74
2022/03/20 12:08:14;;;;;;;34.97;20.10;;;10.10;58.80;;;;;;5076140;28;20037;-74
2022/03/20 12:11:02;;;;;;;32.85;19.75;;;10.00;55.10;;;;;;5073792;28;20045;-74
2022/03/20 12:13:52;;;;;;;35.78;19.83;;;9.90;55.80;;;;;;5059114;28;20040;-74
2022/03/20 12:16:51;;;;;;;33.70;20.52;;;9.90;55.10;;;;;;5053313;28;20084;-75
2022/03/20 12:19:19;;;;;;;37.45;22.17;;;9.90;56.20;;;;;;5051255;28;20037;-75
2022/03/20 12:21:57;;;;;;;34.63;20.52;;;9.70;55.90;;;;;;5051641;28;20071;-75
2022/03/20 12:24:35;;;;;;;32.13;18.75;;;9.80;56.20;;;;;;5053262;28;20469;-74
2022/03/20 12:27:22;;;;;;;36.13;21.98;;;9.80;56.70;;;;;;5051070;28;20053;-74
2022/03/20 12:29:48;;;;;;;34.00;21.90;;;9.80;56.60;;;;;;5052570;28;20120;-75
2022/03/20 12:32:15;;;;;;;33.22;20.02;;;9.80;56.50;;;;;;5050344;28;20120;-75
2022/03/20 12:35:04;;;;;;;34.22;19.83;;;9.90;56.90;;;;;;5050895;28;20048;-75
2022/03/20 12:37:30;;;;;;;37.75;21.27;;;9.90;56.70;;;;;;5037199;28;20382;-74
2022/03/20 12:40:02;;;;;;;34.10;21.50;;;9.90;57.50;;;;;;5050912;28;20045;-74
2022/03/20 12:42:33;;;;;;;35.63;20.30;;;9.90;57.10;;;;;;5033839;28;20054;-74
2022/03/20 12:45:00;;;;;;;36.85;20.83;;;10.10;57.40;;;;;;5034497;28;20132;-75
2022/03/20 12:47:27;;;;;;;34.83;21.08;;;10.10;55.70;;;;;;5052308;28;20036;-70
2022/03/20 12:50:02;;;;;;;33.03;20.23;;;10.00;56.60;;;;;;5051961;28;20061;-70
2022/03/20 12:52:29;;;;;;;38.42;20.35;;;10.10;57.20;;;;;;5051471;28;20465;-69
2022/03/20 12:54:57;;;;;;;33.15;20.27;;;10.10;58.20;;;;;;5052332;28;20098;-69
2022/03/20 12:57:37;;;;;;;37.42;21.25;;;10.20;58.30;;;;;;5053499;28;20098;-71
2022/03/20 13:00:10;;;;;;;35.65;20.42;;;10.20;58.10;;;;;;5052784;28;20052;-71
2022/03/20 13:02:58;;;;;;;35.15;20.90;;;10.20;58.90;;;;;;5051121;28;20076;-71
2022/03/20 13:05:24;;;;;;;36.38;21.50;;;10.20;57.60;;;;;;5051615;28;20072;-68
2022/03/20 13:07:50;;;;;;;37.08;20.65;;;10.20;57.90;;;;;;5050319;28;20528;-71
2022/03/20 13:10:16;;;;;;;36.53;21.63;;;10.20;57.90;;;;;;5051672;28;20095;-71
2022/03/20 13:12:53;;;;;;;35.85;21.80;;;10.20;59.80;;;;;;5050115;28;20041;-71
2022/03/20 13:15:27;;;;;;;31.73;20.15;;;10.20;57.70;;;;;;5060259;28;20068;-71
2022/03/20 13:17:53;;;;;;;36.20;21.60;;;10.20;57.00;;;;;;5060166;28;20047;-70
2022/03/20 13:20:21;;;;;;;36.15;22.15;;;10.30;58.30;;;;;;5051569;28;20033;-71
2022/03/20 13:22:47;;;;;;;36.03;22.17;;;10.30;57.50;;;;;;5050539;28;20738;-71